createdAt,value
2022-11-08T00:03:58.353Z,101138.13
2022-11-08T00:10:19.172Z,101123.47
2022-11-08T00:16:21.203Z,101128.84
2022-11-08T00:22:23.607Z,101141.78
2022-11-08T00:28:25.576Z,101140.06
2022-11-08T00:34:27.569Z,101133.28
2022-11-08T00:40:29.540Z,101135.69
2022-11-08T00:46:32.458Z,101120.75
2022-11-08T00:52:35.437Z,101122.13
2022-11-08T00:58:37.509Z,101122.25
2022-11-08T01:04:41.161Z,101122.47
2022-11-08T01:10:45.211Z,101123.44
2022-11-08T01:16:49.464Z,101115.22
2022-11-08T01:22:51.391Z,101122.25
2022-11-08T01:28:56.161Z,101120.91
2022-11-08T01:34:59.380Z,101117.84
2022-11-08T01:41:01.432Z,101108.81
2022-11-08T01:47:04.437Z,101113.13
2022-11-08T01:53:06.828Z,101106.75
2022-11-08T01:59:11.430Z,101113.19
2022-11-08T02:05:25.800Z,101109.25
2022-11-08T02:11:33.870Z,101118.66
2022-11-08T02:17:36.309Z,101109.34
2022-11-08T02:23:56.189Z,101111.81
2022-11-08T02:29:58.289Z,101118.34
2022-11-08T02:36:00.347Z,101116.16
2022-11-08T02:42:03.168Z,101120.53
2022-11-08T02:48:06.410Z,101112.69
2022-11-08T02:54:09.343Z,101118.47
2022-11-08T03:00:13.375Z,101122.81
2022-11-08T03:06:15.526Z,101119.31
2022-11-08T03:12:17.536Z,101118.69
2022-11-08T03:18:19.850Z,101114.19
2022-11-08T03:24:21.923Z,101129.63
2022-11-08T03:30:24.670Z,101121.72
2022-11-08T03:36:26.629Z,101126.00
2022-11-08T03:42:28.521Z,101118.84
2022-11-08T03:48:32.353Z,101118.47
2022-11-08T03:54:34.349Z,101107.78
2022-11-08T04:00:36.328Z,101109.81
2022-11-08T04:06:40.650Z,101109.41
2022-11-08T04:13:02.023Z,101108.41
2022-11-08T04:19:22.866Z,101110.16
2022-11-08T04:25:24.740Z,101108.66
2022-11-08T04:31:26.713Z,101103.59
2022-11-08T04:37:33.987Z,101100.25
2022-11-08T04:43:36.064Z,101099.97
2022-11-08T04:49:44.461Z,101107.84
2022-11-08T04:55:46.436Z,101104.28
2022-11-08T05:01:55.053Z,101105.88
2022-11-08T05:07:57.106Z,101106.34
2022-11-08T05:13:59.109Z,101113.50
